sensor_id;sensor_type;location;lat;lon;timestamp;temperature;humidity
23079;DHT22;11707;50.830;4.364;2023-04-25T00:00:25;9.10;1.00
23079;DHT22;11707;50.830;4.364;2023-04-25T00:02:51;8.90;13.30
23079;DHT22;11707;50.830;4.364;2023-04-25T00:05:17;9.00;12.30
23079;DHT22;11707;50.830;4.364;2023-04-25T00:07:42;9.00;15.50
23079;DHT22;11707;50.830;4.364;2023-04-25T00:10:09;9.10;10.70
23079;DHT22;11707;50.830;4.364;2023-04-25T00:12:36;9.00;10.50
23079;DHT22;11707;50.830;4.364;2023-04-25T00:15:02;9.00;10.10
23079;DHT22;11707;50.830;4.364;2023-04-25T00:17:28;9.00;14.90
23079;DHT22;11707;50.830;4.364;2023-04-25T00:19:54;9.10;10.10
23079;DHT22;11707;50.830;4.364;2023-04-25T00:22:21;9.00;14.60
23079;DHT22;11707;50.830;4.364;2023-04-25T00:24:47;9.00;16.10
23079;DHT22;11707;50.830;4.364;2023-04-25T00:27:14;9.00;19.00
23079;DHT22;11707;50.830;4.364;2023-04-25T00:29:40;9.00;21.10
23079;DHT22;11707;50.830;4.364;2023-04-25T00:32:08;9.00;25.20
23079;DHT22;11707;50.830;4.364;2023-04-25T00:34:34;8.90;41.70
23079;DHT22;11707;50.830;4.364;2023-04-25T00:37:00;9.00;46.30
23079;DHT22;11707;50.830;4.364;2023-04-25T00:39:29;9.00;50.10
23079;DHT22;11707;50.830;4.364;2023-04-25T00:41:55;8.90;58.30
23079;DHT22;11707;50.830;4.364;2023-04-25T00:44:24;8.80;64.30
23079;DHT22;11707;50.830;4.364;2023-04-25T00:46:55;8.60;67.70
23079;DHT22;11707;50.830;4.364;2023-04-25T00:49:20;8.50;75.90
23079;DHT22;11707;50.830;4.364;2023-04-25T00:51:46;8.40;86.00
23079;DHT22;11707;50.830;4.364;2023-04-25T00:54:12;8.40;87.90
23079;DHT22;11707;50.830;4.364;2023-04-25T00:56:39;8.40;87.50
23079;DHT22;11707;50.830;4.364;2023-04-25T00:59:05;8.30;90.60
23079;DHT22;11707;50.830;4.364;2023-04-25T01:01:31;8.30;91.30
23079;DHT22;11707;50.830;4.364;2023-04-25T01:03:58;8.30;90.40
23079;DHT22;11707;50.830;4.364;2023-04-25T01:06:25;8.30;88.60
23079;DHT22;11707;50.830;4.364;2023-04-25T01:08:51;8.40;88.20
23079;DHT22;11707;50.830;4.364;2023-04-25T01:11:19;8.30;92.70
23079;DHT22;11707;50.830;4.364;2023-04-25T01:13:45;8.30;94.00
23079;DHT22;11707;50.830;4.364;2023-04-25T01:16:13;8.40;92.20
23079;DHT22;11707;50.830;4.364;2023-04-25T01:18:40;8.50;90.10
23079;DHT22;11707;50.830;4.364;2023-04-25T01:21:08;8.40;92.70
23079;DHT22;11707;50.830;4.364;2023-04-25T01:23:35;8.50;91.10
23079;DHT22;11707;50.830;4.364;2023-04-25T01:26:01;8.60;90.60
23079;DHT22;11707;50.830;4.364;2023-04-25T01:28:28;8.60;91.70
23079;DHT22;11707;50.830;4.364;2023-04-25T01:30:54;8.50;92.30
23079;DHT22;11707;50.830;4.364;2023-04-25T01:33:22;8.50;94.80
23079;DHT22;11707;50.830;4.364;2023-04-25T01:35:53;8.40;95.30
23079;DHT22;11707;50.830;4.364;2023-04-25T01:38:18;8.30;98.80
23079;DHT22;11707;50.830;4.364;2023-04-25T01:40:49;8.40;98.10
23079;DHT22;11707;50.830;4.364;2023-04-25T01:43:16;8.40;99.20
23079;DHT22;11707;50.830;4.364;2023-04-25T01:45:44;8.40;98.30
23079;DHT22;11707;50.830;4.364;2023-04-25T01:48:13;8.30;96.30
23079;DHT22;11707;50.830;4.364;2023-04-25T01:50:40;8.20;99.70
23079;DHT22;11707;50.830;4.364;2023-04-25T01:53:06;8.20;98.70
23079;DHT22;11707;50.830;4.364;2023-04-25T01:55:34;8.20;97.10
23079;DHT22;11707;50.830;4.364;2023-04-25T01:58:02;8.20;98.50
23079;DHT22;11707;50.830;4.364;2023-04-25T02:00:28;8.10;99.90
23079;DHT22;11707;50.830;4.364;2023-04-25T02:02:59;8.10;99.90
23079;DHT22;11707;50.830;4.364;2023-04-25T02:05:25;8.10;99.00
23079;DHT22;11707;50.830;4.364;2023-04-25T02:07:51;8.00;99.80
23079;DHT22;11707;50.830;4.364;2023-04-25T02:10:17;7.90;99.90
23079;DHT22;11707;50.830;4.364;2023-04-25T02:12:42;7.80;99.90
23079;DHT22;11707;50.830;4.364;2023-04-25T02:15:08;7.80;99.90
23079;DHT22;11707;50.830;4.364;2023-04-25T02:17:34;7.80;99.90
23079;DHT22;11707;50.830;4.364;2023-04-25T02:20:00;7.80;99.90
23079;DHT22;11707;50.830;4.364;2023-04-25T02:22:26;7.70;99.90
23079;DHT22;11707;50.830;4.364;2023-04-25T02:24:53;7.80;99.90
23079;DHT22;11707;50.830;4.364;2023-04-25T02:27:21;7.80;99.90
23079;DHT22;11707;50.830;4.364;2023-04-25T02:29:46;7.80;99.90
23079;DHT22;11707;50.830;4.364;2023-04-25T02:32:12;7.70;99.90
23079;DHT22;11707;50.830;4.364;2023-04-25T02:34:38;7.80;99.90
23079;DHT22;11707;50.830;4.364;2023-04-25T02:37:03;7.80;99.90
23079;DHT22;11707;50.830;4.364;2023-04-25T02:39:29;7.90;99.90
23079;DHT22;11707;50.830;4.364;2023-04-25T02:41:54;8.00;99.90
23079;DHT22;11707;50.830;4.364;2023-04-25T02:44:20;8.10;99.90
23079;DHT22;11707;50.830;4.364;2023-04-25T02:46:48;8.20;99.90
23079;DHT22;11707;50.830;4.364;2023-04-25T02:49:14;8.20;99.90
23079;DHT22;11707;50.830;4.364;2023-04-25T02:51:40;8.20;99.90
23079;DHT22;11707;50.830;4.364;2023-04-25T02:54:08;8.10;99.90
23079;DHT22;11707;50.830;4.364;2023-04-25T02:56:34;8.00;99.90
23079;DHT22;11707;50.830;4.364;2023-04-25T02:58:59;8.00;99.90
23079;DHT22;11707;50.830;4.364;2023-04-25T03:01:25;8.00;99.90
23079;DHT22;11707;50.830;4.364;2023-04-25T03:03:51;8.00;99.90
23079;DHT22;11707;50.830;4.364;2023-04-25T03:06:16;8.00;99.90
23079;DHT22;11707;50.830;4.364;2023-04-25T03:08:42;8.00;99.90
23079;DHT22;11707;50.830;4.364;2023-04-25T03:11:08;7.90;99.90
23079;DHT22;11707;50.830;4.364;2023-04-25T03:13:33;8.00;99.90
23079;DHT22;11707;50.830;4.364;2023-04-25T03:15:59;8.00;99.90
23079;DHT22;11707;50.830;4.364;2023-04-25T03:18:30;7.90;99.90
23079;DHT22;11707;50.830;4.364;2023-04-25T03:20:55;7.80;99.90
23079;DHT22;11707;50.830;4.364;2023-04-25T03:23:21;7.80;99.90
23079;DHT22;11707;50.830;4.364;2023-04-25T03:25:47;7.80;99.90
23079;DHT22;11707;50.830;4.364;2023-04-25T03:28:13;7.80;99.90
23079;DHT22;11707;50.830;4.364;2023-04-25T03:30:40;7.80;99.90
23079;DHT22;11707;50.830;4.364;2023-04-25T03:33:06;7.70;99.90
23079;DHT22;11707;50.830;4.364;2023-04-25T03:35:32;7.60;99.90
23079;DHT22;11707;50.830;4.364;2023-04-25T03:37:57;7.60;99.90
23079;DHT22;11707;50.830;4.364;2023-04-25T03:40:23;7.50;99.90
23079;DHT22;11707;50.830;4.364;2023-04-25T03:42:49;7.50;99.90
23079;DHT22;11707;50.830;4.364;2023-04-25T03:45:14;7.50;99.90
23079;DHT22;11707;50.830;4.364;2023-04-25T03:47:40;7.50;99.90
23079;DHT22;11707;50.830;4.364;2023-04-25T03:50:06;7.60;99.90
23079;DHT22;11707;50.830;4.364;2023-04-25T03:52:32;7.60;99.90
23079;DHT22;11707;50.830;4.364;2023-04-25T03:54:57;7.70;99.90
23079;DHT22;11707;50.830;4.364;2023-04-25T03:57:23;7.70;99.30
23079;DHT22;11707;50.830;4.364;2023-04-25T03:59:51;7.70;99.00
23079;DHT22;11707;50.830;4.364;2023-04-25T04:02:17;7.70;96.10
23079;DHT22;11707;50.830;4.364;2023-04-25T04:04:43;7.70;96.70
23079;DHT22;11707;50.830;4.364;2023-04-25T04:07:14;7.80;96.90
23079;DHT22;11707;50.830;4.364;2023-04-25T04:09:42;7.90;95.30
23079;DHT22;11707;50.830;4.364;2023-04-25T04:12:08;7.90;92.90
23079;DHT22;11707;50.830;4.364;2023-04-25T04:14:33;8.00;90.80
23079;DHT22;11707;50.830;4.364;2023-04-25T04:17:02;8.00;86.30
23079;DHT22;11707;50.830;4.364;2023-04-25T04:19:28;7.90;82.90
23079;DHT22;11707;50.830;4.364;2023-04-25T04:21:54;7.90;83.00
23079;DHT22;11707;50.830;4.364;2023-04-25T04:24:24;8.00;76.10
23079;DHT22;11707;50.830;4.364;2023-04-25T04:26:50;8.10;72.50
23079;DHT22;11707;50.830;4.364;2023-04-25T04:29:16;8.10;72.70
23079;DHT22;11707;50.830;4.364;2023-04-25T04:31:48;8.00;66.90
23079;DHT22;11707;50.830;4.364;2023-04-25T04:34:14;8.00;71.30
23079;DHT22;11707;50.830;4.364;2023-04-25T04:36:43;8.00;67.90
23079;DHT22;11707;50.830;4.364;2023-04-25T04:39:10;8.10;71.70
23079;DHT22;11707;50.830;4.364;2023-04-25T04:41:36;8.10;68.30
23079;DHT22;11707;50.830;4.364;2023-04-25T04:44:04;8.10;71.20
23079;DHT22;11707;50.830;4.364;2023-04-25T04:46:32;8.10;76.10
23079;DHT22;11707;50.830;4.364;2023-04-25T04:49:05;8.10;66.60
23079;DHT22;11707;50.830;4.364;2023-04-25T04:51:31;8.10;69.00
23079;DHT22;11707;50.830;4.364;2023-04-25T04:54:00;8.00;74.30
23079;DHT22;11707;50.830;4.364;2023-04-25T04:56:28;7.90;77.20
23079;DHT22;11707;50.830;4.364;2023-04-25T04:58:59;7.60;88.10
23079;DHT22;11707;50.830;4.364;2023-04-25T05:01:25;7.50;94.20
23079;DHT22;11707;50.830;4.364;2023-04-25T05:03:51;7.50;96.20
23079;DHT22;11707;50.830;4.364;2023-04-25T05:06:18;7.50;96.50
23079;DHT22;11707;50.830;4.364;2023-04-25T05:08:46;7.50;95.40
23079;DHT22;11707;50.830;4.364;2023-04-25T05:11:12;7.50;93.50
23079;DHT22;11707;50.830;4.364;2023-04-25T05:13:38;7.50;90.20
23079;DHT22;11707;50.830;4.364;2023-04-25T05:16:03;7.40;90.60
23079;DHT22;11707;50.830;4.364;2023-04-25T05:18:29;7.40;92.40
23079;DHT22;11707;50.830;4.364;2023-04-25T05:20:55;7.50;90.70
23079;DHT22;11707;50.830;4.364;2023-04-25T05:23:21;7.40;90.20
23079;DHT22;11707;50.830;4.364;2023-04-25T05:25:46;7.40;92.70
23079;DHT22;11707;50.830;4.364;2023-04-25T05:28:15;7.40;91.90
23079;DHT22;11707;50.830;4.364;2023-04-25T05:30:41;7.50;94.40
23079;DHT22;11707;50.830;4.364;2023-04-25T05:33:09;7.40;95.50
23079;DHT22;11707;50.830;4.364;2023-04-25T05:35:35;7.50;95.80
23079;DHT22;11707;50.830;4.364;2023-04-25T05:38:00;7.50;96.10
23079;DHT22;11707;50.830;4.364;2023-04-25T05:40:27;7.70;97.40
23079;DHT22;11707;50.830;4.364;2023-04-25T05:42:53;7.80;96.10
23079;DHT22;11707;50.830;4.364;2023-04-25T05:45:18;7.80;92.00
23079;DHT22;11707;50.830;4.364;2023-04-25T05:47:44;7.80;84.40
23079;DHT22;11707;50.830;4.364;2023-04-25T05:50:09;7.80;76.80
23079;DHT22;11707;50.830;4.364;2023-04-25T05:52:35;7.90;69.40
23079;DHT22;11707;50.830;4.364;2023-04-25T05:55:01;8.00;55.10
23079;DHT22;11707;50.830;4.364;2023-04-25T05:57:27;8.00;56.20
23079;DHT22;11707;50.830;4.364;2023-04-25T05:59:55;8.10;55.30
23079;DHT22;11707;50.830;4.364;2023-04-25T06:02:23;8.20;50.70
23079;DHT22;11707;50.830;4.364;2023-04-25T06:04:54;8.20;40.30
23079;DHT22;11707;50.830;4.364;2023-04-25T06:07:19;8.20;38.90
23079;DHT22;11707;50.830;4.364;2023-04-25T06:09:46;8.20;39.30
23079;DHT22;11707;50.830;4.364;2023-04-25T06:12:14;8.10;44.40
23079;DHT22;11707;50.830;4.364;2023-04-25T06:14:40;8.10;40.80
23079;DHT22;11707;50.830;4.364;2023-04-25T06:17:06;8.10;44.50
23079;DHT22;11707;50.830;4.364;2023-04-25T06:19:34;8.10;56.00
23079;DHT22;11707;50.830;4.364;2023-04-25T06:22:03;8.10;61.20
23079;DHT22;11707;50.830;4.364;2023-04-25T06:24:28;8.10;65.40
23079;DHT22;11707;50.830;4.364;2023-04-25T06:26:57;8.10;67.50
23079;DHT22;11707;50.830;4.364;2023-04-25T06:29:22;8.20;58.10
23079;DHT22;11707;50.830;4.364;2023-04-25T06:31:48;8.20;62.40
23079;DHT22;11707;50.830;4.364;2023-04-25T06:34:16;8.10;67.20
23079;DHT22;11707;50.830;4.364;2023-04-25T06:36:42;8.00;52.60
23079;DHT22;11707;50.830;4.364;2023-04-25T06:39:09;7.90;51.00
23079;DHT22;11707;50.830;4.364;2023-04-25T06:41:35;7.90;55.10
23079;DHT22;11707;50.830;4.364;2023-04-25T06:44:01;7.90;48.80
23079;DHT22;11707;50.830;4.364;2023-04-25T06:46:29;7.90;36.10
23079;DHT22;11707;50.830;4.364;2023-04-25T06:48:55;7.90;45.00
23079;DHT22;11707;50.830;4.364;2023-04-25T06:51:20;7.90;46.80
23079;DHT22;11707;50.830;4.364;2023-04-25T06:53:46;8.10;45.70
23079;DHT22;11707;50.830;4.364;2023-04-25T06:56:12;8.00;37.00
23079;DHT22;11707;50.830;4.364;2023-04-25T06:58:37;8.00;42.00
23079;DHT22;11707;50.830;4.364;2023-04-25T07:01:03;8.00;40.10
23079;DHT22;11707;50.830;4.364;2023-04-25T07:03:29;8.10;40.50
23079;DHT22;11707;50.830;4.364;2023-04-25T07:05:55;8.00;39.30
23079;DHT22;11707;50.830;4.364;2023-04-25T07:08:21;8.10;36.50
23079;DHT22;11707;50.830;4.364;2023-04-25T07:10:46;8.00;31.00
23079;DHT22;11707;50.830;4.364;2023-04-25T07:13:15;8.20;29.50
23079;DHT22;11707;50.830;4.364;2023-04-25T07:15:41;8.30;21.80
23079;DHT22;11707;50.830;4.364;2023-04-25T07:18:07;8.30;7.30
23079;DHT22;11707;50.830;4.364;2023-04-25T07:20:33;8.30;3.80
23079;DHT22;11707;50.830;4.364;2023-04-25T07:22:58;8.30;1.00
23079;DHT22;11707;50.830;4.364;2023-04-25T07:25:24;8.30;1.00
23079;DHT22;11707;50.830;4.364;2023-04-25T07:27:50;8.40;1.00
23079;DHT22;11707;50.830;4.364;2023-04-25T07:30:18;8.50;1.00
23079;DHT22;11707;50.830;4.364;2023-04-25T07:32:44;8.60;1.00
23079;DHT22;11707;50.830;4.364;2023-04-25T07:35:12;8.50;1.00
23079;DHT22;11707;50.830;4.364;2023-04-25T07:37:41;8.50;1.00
23079;DHT22;11707;50.830;4.364;2023-04-25T07:40:07;8.50;1.00
23079;DHT22;11707;50.830;4.364;2023-04-25T07:42:34;8.40;1.00
23079;DHT22;11707;50.830;4.364;2023-04-25T07:45:00;8.40;1.00
23079;DHT22;11707;50.830;4.364;2023-04-25T07:47:26;8.50;1.00
23079;DHT22;11707;50.830;4.364;2023-04-25T07:49:52;8.60;1.00
23079;DHT22;11707;50.830;4.364;2023-04-25T07:52:21;8.60;1.00
23079;DHT22;11707;50.830;4.364;2023-04-25T07:54:47;8.80;1.00
23079;DHT22;11707;50.830;4.364;2023-04-25T07:57:12;8.70;1.00
23079;DHT22;11707;50.830;4.364;2023-04-25T07:59:39;8.60;1.00
23079;DHT22;11707;50.830;4.364;2023-04-25T08:02:07;8.50;1.00
23079;DHT22;11707;50.830;4.364;2023-04-25T08:04:33;8.50;1.00
23079;DHT22;11707;50.830;4.364;2023-04-25T08:06:59;8.50;1.00
23079;DHT22;11707;50.830;4.364;2023-04-25T08:09:25;8.60;1.00
23079;DHT22;11707;50.830;4.364;2023-04-25T08:11:51;8.70;1.00
23079;DHT22;11707;50.830;4.364;2023-04-25T08:14:19;8.80;1.00
23079;DHT22;11707;50.830;4.364;2023-04-25T08:16:45;8.90;1.00
23079;DHT22;11707;50.830;4.364;2023-04-25T08:19:13;9.10;1.00
23079;DHT22;11707;50.830;4.364;2023-04-25T08:21:39;9.10;1.00
23079;DHT22;11707;50.830;4.364;2023-04-25T08:24:04;9.20;1.00
23079;DHT22;11707;50.830;4.364;2023-04-25T08:26:30;9.20;1.00
23079;DHT22;11707;50.830;4.364;2023-04-25T08:28:56;9.20;1.00
23079;DHT22;11707;50.830;4.364;2023-04-25T08:31:22;9.10;1.00
23079;DHT22;11707;50.830;4.364;2023-04-25T08:33:47;9.10;1.00
23079;DHT22;11707;50.830;4.364;2023-04-25T08:36:19;9.20;1.00
23079;DHT22;11707;50.830;4.364;2023-04-25T08:38:45;9.00;1.00
23079;DHT22;11707;50.830;4.364;2023-04-25T08:41:11;9.00;1.00
23079;DHT22;11707;50.830;4.364;2023-04-25T08:43:42;9.20;1.00
23079;DHT22;11707;50.830;4.364;2023-04-25T08:46:11;9.30;1.00
23079;DHT22;11707;50.830;4.364;2023-04-25T08:48:40;9.30;99.90
23079;DHT22;11707;50.830;4.364;2023-04-25T08:51:07;9.30;99.90
23079;DHT22;11707;50.830;4.364;2023-04-25T08:53:35;9.30;99.90
23079;DHT22;11707;50.830;4.364;2023-04-25T08:56:02;9.30;99.90
23079;DHT22;11707;50.830;4.364;2023-04-25T08:58:28;9.30;99.90
23079;DHT22;11707;50.830;4.364;2023-04-25T09:00:59;9.30;99.90
23079;DHT22;11707;50.830;4.364;2023-04-25T09:03:25;9.50;99.90
23079;DHT22;11707;50.830;4.364;2023-04-25T09:05:51;9.50;99.90
23079;DHT22;11707;50.830;4.364;2023-04-25T09:08:18;9.60;99.90
23079;DHT22;11707;50.830;4.364;2023-04-25T09:10:43;9.70;99.90
23079;DHT22;11707;50.830;4.364;2023-04-25T09:13:12;9.70;99.90
23079;DHT22;11707;50.830;4.364;2023-04-25T09:15:49;9.70;42.90
23079;DHT22;11707;50.830;4.364;2023-04-25T09:18:32;9.80;12.30
23079;DHT22;11707;50.830;4.364;2023-04-25T09:21:09;9.80;1.00
23079;DHT22;11707;50.830;4.364;2023-04-25T09:23:46;9.80;99.90
23079;DHT22;11707;50.830;4.364;2023-04-25T09:26:17;9.80;99.90
23079;DHT22;11707;50.830;4.364;2023-04-25T09:28:46;9.70;99.90
23079;DHT22;11707;50.830;4.364;2023-04-25T09:31:24;9.50;99.90
23079;DHT22;11707;50.830;4.364;2023-04-25T09:33:50;9.50;1.00
23079;DHT22;11707;50.830;4.364;2023-04-25T09:36:26;9.50;96.10
23079;DHT22;11707;50.830;4.364;2023-04-25T09:38:52;9.40;99.90
23079;DHT22;11707;50.830;4.364;2023-04-25T09:41:23;9.30;99.90
23079;DHT22;11707;50.830;4.364;2023-04-25T09:43:49;9.10;99.90
23079;DHT22;11707;50.830;4.364;2023-04-25T09:46:16;9.10;99.90
23079;DHT22;11707;50.830;4.364;2023-04-25T09:48:48;9.10;99.90
23079;DHT22;11707;50.830;4.364;2023-04-25T09:51:14;9.10;99.90
23079;DHT22;11707;50.830;4.364;2023-04-25T09:53:42;9.20;99.90
23079;DHT22;11707;50.830;4.364;2023-04-25T09:56:09;9.10;99.90
23079;DHT22;11707;50.830;4.364;2023-04-25T09:58:37;9.10;99.90
23079;DHT22;11707;50.830;4.364;2023-04-25T10:01:05;9.30;99.90
23079;DHT22;11707;50.830;4.364;2023-04-25T10:03:35;9.50;99.90
23079;DHT22;11707;50.830;4.364;2023-04-25T10:06:03;9.70;99.90
23079;DHT22;11707;50.830;4.364;2023-04-25T10:08:36;9.80;99.90
23079;DHT22;11707;50.830;4.364;2023-04-25T10:11:04;9.90;99.90
23079;DHT22;11707;50.830;4.364;2023-04-25T10:13:31;10.10;99.90
23079;DHT22;11707;50.830;4.364;2023-04-25T10:16:02;10.30;99.90
23079;DHT22;11707;50.830;4.364;2023-04-25T10:18:29;10.30;1.00
23079;DHT22;11707;50.830;4.364;2023-04-25T10:20:57;10.30;99.90
23079;DHT22;11707;50.830;4.364;2023-04-25T10:23:25;10.20;99.90
23079;DHT22;11707;50.830;4.364;2023-04-25T10:25:52;10.20;1.00
23079;DHT22;11707;50.830;4.364;2023-04-25T10:28:19;10.40;99.90
23079;DHT22;11707;50.830;4.364;2023-04-25T10:30:58;10.70;99.90
23079;DHT22;11707;50.830;4.364;2023-04-25T10:33:37;10.90;99.90
23079;DHT22;11707;50.830;4.364;2023-04-25T10:36:19;11.10;99.90
23079;DHT22;11707;50.830;4.364;2023-04-25T10:38:48;11.10;1.00
23079;DHT22;11707;50.830;4.364;2023-04-25T10:41:14;11.20;99.90
23079;DHT22;11707;50.830;4.364;2023-04-25T10:43:43;11.10;99.90
23079;DHT22;11707;50.830;4.364;2023-04-25T10:46:25;10.90;1.00
23079;DHT22;11707;50.830;4.364;2023-04-25T10:48:58;10.80;1.00
23079;DHT22;11707;50.830;4.364;2023-04-25T10:51:29;10.70;99.90
23079;DHT22;11707;50.830;4.364;2023-04-25T10:54:04;10.80;99.90
23079;DHT22;11707;50.830;4.364;2023-04-25T10:56:41;10.80;99.90
23079;DHT22;11707;50.830;4.364;2023-04-25T10:59:18;10.80;99.90
23079;DHT22;11707;50.830;4.364;2023-04-25T11:01:46;10.70;99.90
23079;DHT22;11707;50.830;4.364;2023-04-25T11:04:21;10.30;1.00
23079;DHT22;11707;50.830;4.364;2023-04-25T11:09:37;10.10;99.90
23079;DHT22;11707;50.830;4.364;2023-04-25T11:12:04;10.00;99.90
23079;DHT22;11707;50.830;4.364;2023-04-25T11:14:30;9.60;99.90
23079;DHT22;11707;50.830;4.364;2023-04-25T11:16:57;9.60;99.90
23079;DHT22;11707;50.830;4.364;2023-04-25T11:19:24;9.80;99.90
23079;DHT22;11707;50.830;4.364;2023-04-25T11:21:50;9.70;7.60
23079;DHT22;11707;50.830;4.364;2023-04-25T11:24:17;9.60;99.90
23079;DHT22;11707;50.830;4.364;2023-04-25T11:26:43;9.50;99.90
23079;DHT22;11707;50.830;4.364;2023-04-25T11:29:12;9.70;99.90
23079;DHT22;11707;50.830;4.364;2023-04-25T11:31:38;9.80;61.70
23079;DHT22;11707;50.830;4.364;2023-04-25T11:34:04;10.00;1.00
23079;DHT22;11707;50.830;4.364;2023-04-25T11:36:29;10.10;1.00
23079;DHT22;11707;50.830;4.364;2023-04-25T11:38:56;10.20;99.90
23079;DHT22;11707;50.830;4.364;2023-04-25T11:41:21;10.40;93.80
23079;DHT22;11707;50.830;4.364;2023-04-25T11:43:48;10.50;1.00
23079;DHT22;11707;50.830;4.364;2023-04-25T11:46:14;10.50;99.90
23079;DHT22;11707;50.830;4.364;2023-04-25T11:48:41;10.40;99.90
23079;DHT22;11707;50.830;4.364;2023-04-25T11:51:07;10.40;99.90
23079;DHT22;11707;50.830;4.364;2023-04-25T11:53:33;10.20;99.90
23079;DHT22;11707;50.830;4.364;2023-04-25T11:56:01;10.00;99.90
23079;DHT22;11707;50.830;4.364;2023-04-25T11:58:27;10.10;1.00
23079;DHT22;11707;50.830;4.364;2023-04-25T12:00:53;10.30;1.00
23079;DHT22;11707;50.830;4.364;2023-04-25T12:03:19;10.50;99.90
23079;DHT22;11707;50.830;4.364;2023-04-25T12:05:48;10.90;1.00
23079;DHT22;11707;50.830;4.364;2023-04-25T12:08:16;11.10;1.00
23079;DHT22;11707;50.830;4.364;2023-04-25T12:10:43;10.90;99.90
23079;DHT22;11707;50.830;4.364;2023-04-25T12:13:23;11.00;99.90
23079;DHT22;11707;50.830;4.364;2023-04-25T12:15:49;11.30;99.90
23079;DHT22;11707;50.830;4.364;2023-04-25T12:18:19;11.30;45.20
23079;DHT22;11707;50.830;4.364;2023-04-25T12:20:46;11.30;99.90
23079;DHT22;11707;50.830;4.364;2023-04-25T12:23:12;11.20;99.90
23079;DHT22;11707;50.830;4.364;2023-04-25T12:28:19;11.30;99.90
23079;DHT22;11707;50.830;4.364;2023-04-25T12:31:01;11.20;1.00
23079;DHT22;11707;50.830;4.364;2023-04-25T12:33:37;11.10;1.00
23079;DHT22;11707;50.830;4.364;2023-04-25T12:36:05;10.90;1.00
23079;DHT22;11707;50.830;4.364;2023-04-25T12:38:37;10.90;99.90
23079;DHT22;11707;50.830;4.364;2023-04-25T12:41:03;10.90;99.90
23079;DHT22;11707;50.830;4.364;2023-04-25T12:43:29;11.00;99.90
23079;DHT22;11707;50.830;4.364;2023-04-25T12:45:55;10.80;99.90
23079;DHT22;11707;50.830;4.364;2023-04-25T12:48:26;10.90;1.00
23079;DHT22;11707;50.830;4.364;2023-04-25T12:50:52;11.20;1.00
23079;DHT22;11707;50.830;4.364;2023-04-25T12:53:22;11.70;99.90
23079;DHT22;11707;50.830;4.364;2023-04-25T12:55:49;12.40;99.90
23079;DHT22;11707;50.830;4.364;2023-04-25T12:58:15;13.00;84.60
23079;DHT22;11707;50.830;4.364;2023-04-25T13:00:44;13.00;66.90
23079;DHT22;11707;50.830;4.364;2023-04-25T13:03:10;13.10;99.90
23079;DHT22;11707;50.830;4.364;2023-04-25T13:05:37;12.60;16.20
23079;DHT22;11707;50.830;4.364;2023-04-25T13:08:03;11.80;99.90
23079;DHT22;11707;50.830;4.364;2023-04-25T13:10:29;11.70;99.90
23079;DHT22;11707;50.830;4.364;2023-04-25T13:12:55;11.30;1.00
23079;DHT22;11707;50.830;4.364;2023-04-25T13:15:23;11.10;99.90
23079;DHT22;11707;50.830;4.364;2023-04-25T13:17:49;11.00;99.90
23079;DHT22;11707;50.830;4.364;2023-04-25T13:20:15;11.10;99.90
23079;DHT22;11707;50.830;4.364;2023-04-25T13:22:42;11.60;93.20
23079;DHT22;11707;50.830;4.364;2023-04-25T13:25:11;13.00;99.90
23079;DHT22;11707;50.830;4.364;2023-04-25T13:27:37;14.10;1.00
23079;DHT22;11707;50.830;4.364;2023-04-25T13:30:05;14.20;99.90
23079;DHT22;11707;50.830;4.364;2023-04-25T13:32:37;14.20;99.90
23079;DHT22;11707;50.830;4.364;2023-04-25T13:35:10;14.40;99.90
23079;DHT22;11707;50.830;4.364;2023-04-25T13:37:39;14.70;99.90
23079;DHT22;11707;50.830;4.364;2023-04-25T13:40:08;15.80;20.40
23079;DHT22;11707;50.830;4.364;2023-04-25T13:42:36;16.90;1.00
23079;DHT22;11707;50.830;4.364;2023-04-25T13:45:02;17.10;99.90
23079;DHT22;11707;50.830;4.364;2023-04-25T13:47:31;17.50;99.90
23079;DHT22;11707;50.830;4.364;2023-04-25T13:49:56;17.80;99.90
23079;DHT22;11707;50.830;4.364;2023-04-25T13:52:25;18.50;99.90
23079;DHT22;11707;50.830;4.364;2023-04-25T13:54:54;19.10;99.90
23079;DHT22;11707;50.830;4.364;2023-04-25T13:57:20;18.70;99.90
23079;DHT22;11707;50.830;4.364;2023-04-25T13:59:46;17.20;99.90
23079;DHT22;11707;50.830;4.364;2023-04-25T14:02:12;15.30;99.90
23079;DHT22;11707;50.830;4.364;2023-04-25T14:04:42;13.60;1.00
23079;DHT22;11707;50.830;4.364;2023-04-25T14:07:08;12.70;99.90
23079;DHT22;11707;50.830;4.364;2023-04-25T14:09:36;12.10;99.90
23079;DHT22;11707;50.830;4.364;2023-04-25T14:12:02;12.60;1.00
23079;DHT22;11707;50.830;4.364;2023-04-25T14:14:31;13.00;99.90
23079;DHT22;11707;50.830;4.364;2023-04-25T14:16:57;12.60;99.90
23079;DHT22;11707;50.830;4.364;2023-04-25T14:19:22;13.10;99.90
23079;DHT22;11707;50.830;4.364;2023-04-25T14:21:49;13.80;80.90
23079;DHT22;11707;50.830;4.364;2023-04-25T14:24:17;13.80;30.00
23079;DHT22;11707;50.830;4.364;2023-04-25T14:26:43;13.90;8.70
23079;DHT22;11707;50.830;4.364;2023-04-25T14:29:09;14.20;1.00
23079;DHT22;11707;50.830;4.364;2023-04-25T14:31:37;14.30;1.00
23079;DHT22;11707;50.830;4.364;2023-04-25T14:34:04;13.80;1.00
23079;DHT22;11707;50.830;4.364;2023-04-25T14:36:30;14.30;1.00
23079;DHT22;11707;50.830;4.364;2023-04-25T14:38:59;14.90;1.00
23079;DHT22;11707;50.830;4.364;2023-04-25T14:41:25;15.30;99.90
23079;DHT22;11707;50.830;4.364;2023-04-25T14:43:54;15.50;99.90
23079;DHT22;11707;50.830;4.364;2023-04-25T14:46:22;15.80;99.90
23079;DHT22;11707;50.830;4.364;2023-04-25T14:48:48;15.70;99.90
23079;DHT22;11707;50.830;4.364;2023-04-25T14:51:14;15.80;99.90
23079;DHT22;11707;50.830;4.364;2023-04-25T14:53:40;16.10;99.90
23079;DHT22;11707;50.830;4.364;2023-04-25T14:56:09;16.30;99.90
23079;DHT22;11707;50.830;4.364;2023-04-25T14:58:34;15.60;99.90
23079;DHT22;11707;50.830;4.364;2023-04-25T15:01:03;14.80;99.90
23079;DHT22;11707;50.830;4.364;2023-04-25T15:03:32;13.70;99.90
23079;DHT22;11707;50.830;4.364;2023-04-25T15:06:01;13.00;1.00
23079;DHT22;11707;50.830;4.364;2023-04-25T15:08:26;12.30;1.00
23079;DHT22;11707;50.830;4.364;2023-04-25T15:10:54;11.90;4.90
23079;DHT22;11707;50.830;4.364;2023-04-25T15:13:20;12.20;99.90
23079;DHT22;11707;50.830;4.364;2023-04-25T15:15:46;13.10;1.00
23079;DHT22;11707;50.830;4.364;2023-04-25T15:18:19;13.30;1.00
23079;DHT22;11707;50.830;4.364;2023-04-25T15:20:52;13.10;1.00
23079;DHT22;11707;50.830;4.364;2023-04-25T15:23:19;12.90;1.00
23079;DHT22;11707;50.830;4.364;2023-04-25T15:25:50;12.50;1.00
23079;DHT22;11707;50.830;4.364;2023-04-25T15:28:16;12.30;44.00
23079;DHT22;11707;50.830;4.364;2023-04-25T15:30:43;12.20;80.00
23079;DHT22;11707;50.830;4.364;2023-04-25T15:33:11;12.00;89.40
23079;DHT22;11707;50.830;4.364;2023-04-25T15:35:37;11.80;64.00
23079;DHT22;11707;50.830;4.364;2023-04-25T15:38:03;11.80;82.60
23079;DHT22;11707;50.830;4.364;2023-04-25T15:40:29;11.90;65.40
23079;DHT22;11707;50.830;4.364;2023-04-25T15:42:59;11.90;90.40
23079;DHT22;11707;50.830;4.364;2023-04-25T15:45:27;11.60;60.10
23079;DHT22;11707;50.830;4.364;2023-04-25T15:47:55;11.50;58.90
23079;DHT22;11707;50.830;4.364;2023-04-25T15:50:21;11.50;59.40